Terminal Aerodrome Forecast
Issued by NWS Albany, NY

Home | Current Version | Previous Version | Text Only | Print | Product List | Glossary On
Versions: 1 2 3 4 5 6 7 8 9 10 11 12 13 14 15 16 17 18 19 20
000
FTUS41 KALY 301400 AAB
TAFGFL
TAF AMD
KGFL 301400Z 3014/3112 20006KT P6SM VCSH OVC012
     FM301500 21010KT P6SM VCSH BKN025
     FM301800 24014G22KT P6SM -SHRASN BKN030
     FM310000 25008G14KT P6SM BKN050
     FM310700 28007KT P6SM BKN050=

USA.gov is the U.S. government's official web portal to all federal, state and local government web resources and services.